Time;durP1;ratioP1;P1;durP2;ratioP2;P2;SDS_P1;SDS_P2;PMS_P1;PMS_P2;Temp;Humidity;BMP_temperature;BMP_pressure;BME280_temperature;BME280_humidity;BME280_pressure;Samples;Min_cycle;Max_cycle;Signal;HPM_P1;HPM_P2
2024/01/11 00:01:16;;;;;;;;;;;;;;;;;;5126485;28;20042;-41
2024/01/11 00:03:41;;;;;;;;;;;;;;;;;;5126472;28;20135;-41
2024/01/11 00:06:07;;;;;;;;;;;;;;;;;;5126821;28;19947;-40
2024/01/11 00:08:32;;;;;;;;;;;;;;;;;;5127333;28;20076;-40
2024/01/11 00:10:58;;;;;;;;;;;;;;;;;;5126920;28;20026;-41
2024/01/11 00:13:24;;;;;;;;;;;;;;;;;;5128350;27;19974;-41
2024/01/11 00:15:49;;;;;;;;;;;;;;;;;;5130222;28;19923;-40
2024/01/11 00:18:15;;;;;;;;;;;;;;;;;;5130432;28;19986;-41
2024/01/11 00:20:40;;;;;;;;;;;;;;;;;;5129970;28;19923;-40
2024/01/11 00:23:06;;;;;;;;;;;;;;;;;;5130778;28;19974;-40
2024/01/11 00:25:31;;;;;;;;;;;;;;;;;;5130584;28;20014;-40
2024/01/11 00:27:57;;;;;;;;;;;;;;;;;;5129928;28;19962;-40
2024/01/11 00:30:23;;;;;;;;;;;;;;;;;;5130571;28;20447;-44
2024/01/11 00:32:48;;;;;;;;;;;;;;;;;;5130797;28;19931;-41
2024/01/11 00:35:14;;;;;;;;;;;;;;;;;;5128112;28;20021;-40
2024/01/11 00:37:39;;;;;;;;;;;;;;;;;;5129809;28;19966;-43
2024/01/11 00:40:05;;;;;;;;;;;;;;;;;;5130372;28;19930;-41
2024/01/11 00:42:31;;;;;;;;;;;;;;;;;;5130444;28;20406;-40
2024/01/11 00:44:56;;;;;;;;;;;;;;;;;;5130543;28;20446;-40
2024/01/11 00:47:22;;;;;;;;;;;;;;;;;;5129960;28;21297;-40
2024/01/11 00:49:47;;;;;;;;;;;;;;;;;;5128415;28;20022;-40
2024/01/11 00:52:13;;;;;;;;;;;;;;;;;;5130019;28;20387;-40
2024/01/11 00:54:39;;;;;;;;;;;;;;;;;;5130267;28;19976;-40
2024/01/11 00:57:04;;;;;;;;;;;;;;;;;;5130178;28;19984;-41
2024/01/11 00:59:30;;;;;;;;;;;;;;;;;;5130410;28;19985;-41
2024/01/11 01:01:55;;;;;;;;;;;;;;;;;;5130130;28;20022;-41
2024/01/11 01:04:21;;;;;;;;;;;;;;;;;;5128385;28;19986;-41
2024/01/11 01:06:46;;;;;;;;;;;;;;;;;;5128923;28;20044;-41
2024/01/11 01:09:13;;;;;;;;;;;;;;;;;;5129902;28;20363;-40
2024/01/11 01:11:38;;;;;;;;;;;;;;;;;;5129454;28;19978;-41
2024/01/11 01:14:04;;;;;;;;;;;;;;;;;;5129687;28;20014;-42
2024/01/11 01:16:29;;;;;;;;;;;;;;;;;;5129109;28;20349;-42
2024/01/11 01:18:55;;;;;;;;;;;;;;;;;;5128252;28;20026;-41
2024/01/11 01:21:20;;;;;;;;;;;;;;;;;;5128154;28;20006;-40
2024/01/11 01:23:46;;;;;;;;;;;;;;;;;;5128688;27;20402;-41
2024/01/11 01:26:11;;;;;;;;;;;;;;;;;;5129874;28;20365;-42
2024/01/11 01:28:37;;;;;;;;;;;;;;;;;;5129302;28;19977;-41
2024/01/11 01:31:02;;;;;;;;;;;;;;;;;;5129632;28;19932;-42
2024/01/11 01:33:27;;;;;;;;;;;;;;;;;;5128328;28;19975;-41
2024/01/11 01:35:53;;;;;;;;;;;;;;;;;;5129272;28;19931;-41
2024/01/11 01:38:19;;;;;;;;;;;;;;;;;;5129486;28;20018;-41
2024/01/11 01:40:44;;;;;;;;;;;;;;;;;;5129119;28;19935;-40
2024/01/11 01:43:10;;;;;;;;;;;;;;;;;;5129101;28;20067;-42
2024/01/11 01:45:35;;;;;;;;;;;;;;;;;;5129030;28;19930;-40
2024/01/11 01:48:00;;;;;;;;;;;;;;;;;;5128861;28;19927;-41
2024/01/11 01:50:26;;;;;;;;;;;;;;;;;;5129276;28;20252;-41
2024/01/11 01:52:52;;;;;;;;;;;;;;;;;;5129266;28;19924;-40
2024/01/11 01:55:17;;;;;;;;;;;;;;;;;;5129024;28;20270;-40
2024/01/11 01:57:43;;;;;;;;;;;;;;;;;;5128620;28;19923;-41
2024/01/11 02:00:09;;;;;;;;;;;;;;;;;;5128973;28;19930;-40
2024/01/11 02:02:34;;;;;;;;;;;;;;;;;;5128687;28;19931;-40
2024/01/11 02:05:00;;;;;;;;;;;;;;;;;;5128874;28;19932;-41
2024/01/11 02:07:25;;;;;;;;;;;;;;;;;;5128685;28;19946;-40
2024/01/11 02:09:51;;;;;;;;;;;;;;;;;;5128671;28;19924;-40
2024/01/11 02:12:16;;;;;;;;;;;;;;;;;;5128782;28;20030;-40
2024/01/11 02:14:41;;;;;;;;;;;;;;;;;;5128994;28;19938;-39
2024/01/11 02:17:07;;;;;;;;;;;;;;;;;;5127865;28;20017;-40
2024/01/11 02:19:34;;;;;;;;;;;;;;;;;;5128882;28;20497;-41
2024/01/11 02:21:59;;;;;;;;;;;;;;;;;;5128757;28;19927;-41
2024/01/11 02:24:24;;;;;;;;;;;;;;;;;;5128432;28;20198;-40
2024/01/11 02:26:50;;;;;;;;;;;;;;;;;;5127923;28;20014;-40
2024/01/11 02:29:15;;;;;;;;;;;;;;;;;;5128171;28;20010;-42
2024/01/11 02:31:41;;;;;;;;;;;;;;;;;;5128311;28;20026;-41
2024/01/11 02:34:06;;;;;;;;;;;;;;;;;;5128545;28;20019;-40
2024/01/11 02:36:32;;;;;;;;;;;;;;;;;;5127218;27;20553;-41
2024/01/11 02:38:57;;;;;;;;;;;;;;;;;;5128577;28;19934;-41
2024/01/11 02:41:23;;;;;;;;;;;;;;;;;;5128593;28;20026;-41
2024/01/11 02:43:48;;;;;;;;;;;;;;;;;;5128365;28;20027;-42
2024/01/11 02:46:14;;;;;;;;;;;;;;;;;;5127793;28;20215;-41
2024/01/11 02:48:39;;;;;;;;;;;;;;;;;;5127603;28;20050;-40
2024/01/11 02:51:05;;;;;;;;;;;;;;;;;;5127889;28;19924;-40
2024/01/11 02:53:34;;;;;;;;;;;;;;;;;;5128023;28;19927;-40
2024/01/11 02:55:59;;;;;;;;;;;;;;;;;;5128409;28;19923;-40
2024/01/11 02:58:28;;;;;;;;;;;;;;;;;;5127876;28;19923;-39
2024/01/11 03:00:53;;;;;;;;;;;;;;;;;;5127981;28;20007;-40
2024/01/11 03:03:19;;;;;;;;;;;;;;;;;;5127284;28;19923;-40
2024/01/11 03:05:44;;;;;;;;;;;;;;;;;;5128377;28;19981;-40
2024/01/11 03:08:10;;;;;;;;;;;;;;;;;;5127225;28;19972;-41
2024/01/11 03:10:35;;;;;;;;;;;;;;;;;;5127399;28;19998;-39
2024/01/11 03:13:00;;;;;;;;;;;;;;;;;;5128078;28;20384;-40
2024/01/11 03:15:26;;;;;;;;;;;;;;;;;;5127107;28;19985;-40
2024/01/11 03:17:51;;;;;;;;;;;;;;;;;;5126333;28;19931;-40
2024/01/11 03:20:20;;;;;;;;;;;;;;;;;;5127436;28;19962;-40
2024/01/11 03:22:45;;;;;;;;;;;;;;;;;;5128002;28;20286;-42
2024/01/11 03:25:11;;;;;;;;;;;;;;;;;;5127438;28;19924;-42
2024/01/11 03:27:36;;;;;;;;;;;;;;;;;;5127550;28;19959;-40
2024/01/11 03:30:02;;;;;;;;;;;;;;;;;;5127266;28;19923;-40
2024/01/11 03:32:27;;;;;;;;;;;;;;;;;;5126978;28;19985;-40
2024/01/11 03:34:53;;;;;;;;;;;;;;;;;;5127759;28;19939;-41
2024/01/11 03:37:19;;;;;;;;;;;;;;;;;;5127312;28;20022;-40
2024/01/11 03:39:44;;;;;;;;;;;;;;;;;;5127192;28;19930;-41
2024/01/11 03:42:09;;;;;;;;;;;;;;;;;;5127762;28;20427;-41
2024/01/11 03:44:35;;;;;;;;;;;;;;;;;;5127471;28;19938;-40
2024/01/11 03:47:00;;;;;;;;;;;;;;;;;;5125997;27;19954;-40
2024/01/11 03:49:26;;;;;;;;;;;;;;;;;;5125834;28;19928;-40
2024/01/11 03:51:51;;;;;;;;;;;;;;;;;;5124404;28;20017;-40
2024/01/11 03:54:17;;;;;;;;;;;;;;;;;;5126775;28;20631;-41
2024/01/11 03:56:42;;;;;;;;;;;;;;;;;;5127252;28;20022;-41
2024/01/11 03:59:08;;;;;;;;;;;;;;;;;;5126219;28;20013;-41
2024/01/11 04:01:34;;;;;;;;;;;;;;;;;;5127353;28;19981;-41
2024/01/11 04:04:01;;;;;;;;;;;;;;;;;;5127220;28;19969;-40
2024/01/11 04:06:26;;;;;;;;;;;;;;;;;;5126942;28;20382;-40
2024/01/11 04:08:52;;;;;;;;;;;;;;;;;;5127099;28;19924;-41
2024/01/11 04:11:17;;;;;;;;;;;;;;;;;;5127155;28;19974;-41
2024/01/11 04:13:43;;;;;;;;;;;;;;;;;;5125698;28;20192;-42
2024/01/11 04:16:08;;;;;;;;;;;;;;;;;;5126832;28;19974;-39
2024/01/11 04:18:34;;;;;;;;;;;;;;;;;;5126424;28;19927;-40
2024/01/11 04:20:59;;;;;;;;;;;;;;;;;;5126988;28;20167;-40
2024/01/11 04:23:25;;;;;;;;;;;;;;;;;;5126521;28;19924;-41
2024/01/11 04:25:51;;;;;;;;;;;;;;;;;;5126229;28;20415;-40
2024/01/11 04:28:16;;;;;;;;;;;;;;;;;;5126708;28;19923;-41
2024/01/11 04:30:42;;;;;;;;;;;;;;;;;;5127163;28;19983;-40
2024/01/11 04:33:07;;;;;;;;;;;;;;;;;;5126605;28;19978;-43
2024/01/11 04:35:33;;;;;;;;;;;;;;;;;;5127056;28;19969;-42
2024/01/11 04:37:58;;;;;;;;;;;;;;;;;;5126569;28;19923;-41
2024/01/11 04:40:24;;;;;;;;;;;;;;;;;;5125952;28;19967;-41
2024/01/11 04:42:49;;;;;;;;;;;;;;;;;;5126381;28;20010;-40
2024/01/11 04:45:15;;;;;;;;;;;;;;;;;;5126878;28;20427;-41
2024/01/11 04:47:40;;;;;;;;;;;;;;;;;;5125541;28;20385;-40
2024/01/11 04:50:06;;;;;;;;;;;;;;;;;;5125965;27;19923;-41
2024/01/11 04:52:31;;;;;;;;;;;;;;;;;;5127179;28;20006;-40
2024/01/11 04:54:57;;;;;;;;;;;;;;;;;;5125245;28;19931;-40
2024/01/11 04:57:22;;;;;;;;;;;;;;;;;;5125917;28;20022;-40
2024/01/11 04:59:48;;;;;;;;;;;;;;;;;;5128890;27;19930;-43
2024/01/11 05:02:13;;;;;;;;;;;;;;;;;;5130016;28;20057;-40
2024/01/11 05:04:39;;;;;;;;;;;;;;;;;;5129813;28;19970;-41
2024/01/11 05:07:04;;;;;;;;;;;;;;;;;;5129602;28;19927;-41
2024/01/11 05:09:29;;;;;;;;;;;;;;;;;;5125532;28;20714;-42
2024/01/11 05:11:55;;;;;;;;;;;;;;;;;;5129687;28;20339;-41
2024/01/11 05:14:20;;;;;;;;;;;;;;;;;;5129395;28;19923;-40
2024/01/11 05:16:46;;;;;;;;;;;;;;;;;;5129220;28;19928;-40
2024/01/11 05:19:11;;;;;;;;;;;;;;;;;;5129220;28;19947;-40
2024/01/11 05:21:37;;;;;;;;;;;;;;;;;;5129961;28;19939;-40
2024/01/11 05:24:03;;;;;;;;;;;;;;;;;;5128819;28;19972;-40
2024/01/11 05:26:28;;;;;;;;;;;;;;;;;;5129191;28;20022;-40
2024/01/11 05:28:53;;;;;;;;;;;;;;;;;;5129258;28;19970;-40
2024/01/11 05:31:19;;;;;;;;;;;;;;;;;;5128986;28;20026;-40
2024/01/11 05:33:45;;;;;;;;;;;;;;;;;;5127620;28;20000;-43
2024/01/11 05:36:11;;;;;;;;;;;;;;;;;;5129486;28;19923;-41
2024/01/11 05:38:36;;;;;;;;;;;;;;;;;;5129477;28;19927;-41
2024/01/11 05:41:02;;;;;;;;;;;;;;;;;;5127298;28;19923;-42
2024/01/11 05:43:28;;;;;;;;;;;;;;;;;;5127636;28;19971;-42
2024/01/11 05:45:53;;;;;;;;;;;;;;;;;;5129102;28;20015;-42
2024/01/11 05:48:19;;;;;;;;;;;;;;;;;;5126066;28;20625;-43
2024/01/11 05:50:44;;;;;;;;;;;;;;;;;;5127740;28;19924;-44
2024/01/11 05:53:10;;;;;;;;;;;;;;;;;;5127983;28;19959;-41
2024/01/11 05:55:35;;;;;;;;;;;;;;;;;;5127710;28;20418;-43
2024/01/11 05:58:01;;;;;;;;;;;;;;;;;;5128100;28;19923;-35
2024/01/11 06:00:26;;;;;;;;;;;;;;;;;;5127226;28;20415;-36
2024/01/11 06:02:52;;;;;;;;;;;;;;;;;;5128456;28;20022;-41
2024/01/11 06:05:17;;;;;;;;;;;;;;;;;;5126957;28;19974;-39
2024/01/11 06:07:43;;;;;;;;;;;;;;;;;;5128448;28;19923;-35
2024/01/11 06:10:08;;;;;;;;;;;;;;;;;;5128929;27;19989;-35
2024/01/11 06:12:34;;;;;;;;;;;;;;;;;;5128646;28;19931;-42
2024/01/11 06:14:59;;;;;;;;;;;;;;;;;;5126164;28;20462;-42
2024/01/11 06:17:25;;;;;;;;;;;;;;;;;;5126426;28;20424;-40
2024/01/11 06:19:50;;;;;;;;;;;;;;;;;;5126160;28;20359;-40
2024/01/11 06:22:16;;;;;;;;;;;;;;;;;;5127846;28;20006;-43
2024/01/11 06:24:41;;;;;;;;;;;;;;;;;;5128660;28;19924;-43
2024/01/11 06:27:07;;;;;;;;;;;;;;;;;;5127177;28;19923;-40
2024/01/11 06:29:32;;;;;;;;;;;;;;;;;;5127495;28;19950;-39
2024/01/11 06:31:58;;;;;;;;;;;;;;;;;;5127726;28;20022;-42
2024/01/11 06:34:23;;;;;;;;;;;;;;;;;;5126672;28;19929;-42
2024/01/11 06:36:48;;;;;;;;;;;;;;;;;;5125639;28;20386;-41
2024/01/11 06:39:14;;;;;;;;;;;;;;;;;;5119586;28;19975;-42
2024/01/11 06:41:39;;;;;;;;;;;;;;;;;;5123889;28;20250;-45
2024/01/11 06:44:05;;;;;;;;;;;;;;;;;;5125145;28;20374;-43
2024/01/11 06:46:30;;;;;;;;;;;;;;;;;;5127052;28;20443;-38
2024/01/11 06:48:56;;;;;;;;;;;;;;;;;;5125733;28;19932;-43
2024/01/11 06:51:21;;;;;;;;;;;;;;;;;;5127027;28;20017;-42
2024/01/11 06:53:47;;;;;;;;;;;;;;;;;;5124209;28;19945;-41
2024/01/11 06:56:12;;;;;;;;;;;;;;;;;;5124833;28;19977;-45
2024/01/11 06:58:38;;;;;;;;;;;;;;;;;;5124741;28;20006;-40
2024/01/11 07:01:04;;;;;;;;;;;;;;;;;;5125621;28;20420;-42
2024/01/11 07:03:30;;;;;;;;;;;;;;;;;;5123504;28;19938;-44
2024/01/11 07:05:55;;;;;;;;;;;;;;;;;;5125737;28;19931;-45
2024/01/11 07:08:21;;;;;;;;;;;;;;;;;;5126322;28;20285;-43
2024/01/11 07:10:47;;;;;;;;;;;;;;;;;;5125765;28;20440;-41
2024/01/11 07:13:16;;;;;;;;;;;;;;;;;;5123711;28;19950;-42
2024/01/11 07:15:42;;;;;;;;;;;;;;;;;;5125330;28;20379;-44
2024/01/11 07:18:07;;;;;;;;;;;;;;;;;;5125095;28;19935;-49
2024/01/11 07:20:33;;;;;;;;;;;;;;;;;;5127210;28;20001;-43
2024/01/11 07:22:59;;;;;;;;;;;;;;;;;;5120308;27;20014;-41
2024/01/11 07:25:24;;;;;;;;;;;;;;;;;;5121756;28;20368;-43
2024/01/11 07:27:49;;;;;;;;;;;;;;;;;;5122942;27;19923;-41
2024/01/11 07:30:15;;;;;;;;;;;;;;;;;;5122382;28;20262;-42
2024/01/11 07:32:40;;;;;;;;;;;;;;;;;;5124884;27;19932;-40
2024/01/11 07:35:06;;;;;;;;;;;;;;;;;;5124662;28;20413;-42
2024/01/11 07:37:36;;;;;;;;;;;;;;;;;;5121121;27;19985;-38
2024/01/11 07:40:03;;;;;;;;;;;;;;;;;;5122880;27;19924;-41
2024/01/11 07:42:29;;;;;;;;;;;;;;;;;;5120075;28;19927;-36
2024/01/11 07:44:54;;;;;;;;;;;;;;;;;;5119708;28;19939;-41
2024/01/11 07:47:20;;;;;;;;;;;;;;;;;;5115669;28;19953;-45
2024/01/11 07:49:45;;;;;;;;;;;;;;;;;;5117163;28;19923;-40
2024/01/11 07:52:11;;;;;;;;;;;;;;;;;;5125102;28;20084;-41
2024/01/11 07:54:36;;;;;;;;;;;;;;;;;;5124721;28;19927;-42
2024/01/11 07:57:02;;;;;;;;;;;;;;;;;;5121800;28;19958;-42
2024/01/11 07:59:28;;;;;;;;;;;;;;;;;;5118817;28;20347;-43
2024/01/11 08:01:54;;;;;;;;;;;;;;;;;;5123055;28;20374;-42
2024/01/11 08:04:20;;;;;;;;;;;;;;;;;;5122783;28;19976;-43
2024/01/11 08:06:45;;;;;;;;;;;;;;;;;;5117262;27;20509;-42
2024/01/11 08:09:13;;;;;;;;;;;;;;;;;;5120385;28;20482;-41
2024/01/11 08:11:38;;;;;;;;;;;;;;;;;;5073187;28;20350;-42
2024/01/11 08:14:06;;;;;;;;;;;;;;;;;;5081176;28;20501;-44
2024/01/11 08:16:32;;;;;;;;;;;;;;;;;;5075473;28;20461;-41
2024/01/11 08:18:58;;;;;;;;;;;;;;;;;;5078911;28;19931;-41
2024/01/11 08:21:24;;;;;;;;;;;;;;;;;;5076205;28;19954;-40
2024/01/11 08:23:50;;;;;;;;;;;;;;;;;;5085612;28;19931;-41
2024/01/11 08:26:15;;;;;;;;;;;;;;;;;;5083040;28;20307;-41
2024/01/11 08:28:41;;;;;;;;;;;;;;;;;;5080449;28;19981;-41
2024/01/11 08:31:07;;;;;;;;;;;;;;;;;;5119976;27;19930;-40
2024/01/11 08:33:32;;;;;;;;;;;;;;;;;;5121821;27;19938;-40
2024/01/11 08:35:58;;;;;;;;;;;;;;;;;;5124295;27;20192;-40
2024/01/11 08:38:24;;;;;;;;;;;;;;;;;;5124130;27;20340;-40
2024/01/11 08:40:49;;;;;;;;;;;;;;;;;;5124335;28;20455;-41
2024/01/11 08:43:15;;;;;;;;;;;;;;;;;;5119401;27;19970;-40
2024/01/11 08:45:40;;;;;;;;;;;;;;;;;;5117626;27;20446;-40
2024/01/11 08:48:06;;;;;;;;;;;;;;;;;;5120569;28;19938;-41
2024/01/11 08:50:32;;;;;;;;;;;;;;;;;;5124043;28;20026;-40
2024/01/11 08:52:58;;;;;;;;;;;;;;;;;;5124730;28;19978;-41
2024/01/11 08:55:23;;;;;;;;;;;;;;;;;;5127824;28;20026;-43
2024/01/11 08:57:49;;;;;;;;;;;;;;;;;;5125196;28;19931;-41
2024/01/11 09:00:17;;;;;;;;;;;;;;;;;;5125857;27;20022;-41
2024/01/11 09:02:42;;;;;;;;;;;;;;;;;;5125194;28;20383;-45
2024/01/11 09:05:08;;;;;;;;;;;;;;;;;;5126337;28;20312;-39
2024/01/11 09:07:34;;;;;;;;;;;;;;;;;;5116685;28;19966;-41
2024/01/11 09:10:00;;;;;;;;;;;;;;;;;;5121510;28;19923;-41
2024/01/11 09:12:25;;;;;;;;;;;;;;;;;;5123184;28;20065;-40
2024/01/11 09:14:50;;;;;;;;;;;;;;;;;;5122607;28;19958;-42
2024/01/11 09:17:16;;;;;;;;;;;;;;;;;;5125242;28;20446;-41
2024/01/11 09:19:41;;;;;;;;;;;;;;;;;;5124324;28;20697;-43
2024/01/11 09:22:09;;;;;;;;;;;;;;;;;;5125088;28;19931;-40
2024/01/11 09:24:35;;;;;;;;;;;;;;;;;;5117381;28;19927;-41
2024/01/11 09:27:04;;;;;;;;;;;;;;;;;;5117295;28;20411;-41
2024/01/11 09:29:29;;;;;;;;;;;;;;;;;;5128113;28;20120;-40
2024/01/11 09:31:55;;;;;;;;;;;;;;;;;;5118896;28;20264;-41
2024/01/11 09:34:20;;;;;;;;;;;;;;;;;;5119337;28;19959;-40
2024/01/11 09:36:46;;;;;;;;;;;;;;;;;;5116576;27;20452;-40
2024/01/11 09:39:13;;;;;;;;;;;;;;;;;;5118826;27;20000;-42
2024/01/11 09:41:38;;;;;;;;;;;;;;;;;;5123868;28;20014;-39
2024/01/11 09:44:04;;;;;;;;;;;;;;;;;;5119367;27;19931;-42
2024/01/11 09:46:29;;;;;;;;;;;;;;;;;;5121610;28;19932;-41
2024/01/11 09:48:55;;;;;;;;;;;;;;;;;;5119661;27;20014;-42
2024/01/11 09:51:20;;;;;;;;;;;;;;;;;;5120781;28;19938;-40
2024/01/11 09:53:46;;;;;;;;;;;;;;;;;;5117886;28;20026;-42
2024/01/11 09:56:11;;;;;;;;;;;;;;;;;;5117998;28;19928;-41
2024/01/11 09:58:37;;;;;;;;;;;;;;;;;;5115689;27;20024;-41
2024/01/11 10:01:02;;;;;;;;;;;;;;;;;;5120658;28;20026;-40
2024/01/11 10:03:28;;;;;;;;;;;;;;;;;;5119276;27;20414;-41
2024/01/11 10:05:53;;;;;;;;;;;;;;;;;;5116475;28;19928;-42
2024/01/11 10:08:19;;;;;;;;;;;;;;;;;;5123170;28;19923;-40
2024/01/11 10:10:44;;;;;;;;;;;;;;;;;;5121099;28;19928;-42
2024/01/11 10:13:10;;;;;;;;;;;;;;;;;;5121007;28;19931;-44
2024/01/11 10:15:36;;;;;;;;;;;;;;;;;;5123181;28;19928;-41
2024/01/11 10:18:01;;;;;;;;;;;;;;;;;;5121687;28;19984;-39
2024/01/11 10:20:29;;;;;;;;;;;;;;;;;;5121080;28;19945;-42
2024/01/11 10:22:55;;;;;;;;;;;;;;;;;;5121574;28;19931;-41
2024/01/11 10:25:21;;;;;;;;;;;;;;;;;;5120888;28;19924;-42
2024/01/11 10:27:46;;;;;;;;;;;;;;;;;;5117121;28;19924;-40
2024/01/11 10:30:13;;;;;;;;;;;;;;;;;;5115360;27;20219;-41
2024/01/11 10:32:38;;;;;;;;;;;;;;;;;;5121670;27;20382;-42
2024/01/11 10:35:04;;;;;;;;;;;;;;;;;;5117560;27;19927;-40
2024/01/11 10:37:32;;;;;;;;;;;;;;;;;;5121992;28;19981;-41
2024/01/11 10:39:57;;;;;;;;;;;;;;;;;;5114522;28;19938;-40
2024/01/11 10:42:23;;;;;;;;;;;;;;;;;;5114731;28;19935;-40
2024/01/11 10:44:48;;;;;;;;;;;;;;;;;;5114124;27;19931;-43
2024/01/11 10:47:14;;;;;;;;;;;;;;;;;;5121823;28;20334;-41
2024/01/11 10:49:40;;;;;;;;;;;;;;;;;;5124705;28;20980;-42
2024/01/11 10:52:06;;;;;;;;;;;;;;;;;;5114899;28;19931;-41
2024/01/11 10:54:31;;;;;;;;;;;;;;;;;;5121598;28;19987;-41
2024/01/11 10:56:57;;;;;;;;;;;;;;;;;;5119296;27;19931;-40
2024/01/11 10:59:24;;;;;;;;;;;;;;;;;;5119907;28;19924;-44
2024/01/11 11:01:51;;;;;;;;;;;;;;;;;;5121895;27;20286;-40
2024/01/11 11:04:16;;;;;;;;;;;;;;;;;;5118345;27;19934;-41
2024/01/11 11:06:42;;;;;;;;;;;;;;;;;;5124465;28;19927;-40
2024/01/11 11:09:07;;;;;;;;;;;;;;;;;;5123570;28;20064;-40
2024/01/11 11:11:33;;;;;;;;;;;;;;;;;;5122037;28;20243;-42
2024/01/11 11:13:58;;;;;;;;;;;;;;;;;;5119670;27;19978;-41
2024/01/11 11:16:24;;;;;;;;;;;;;;;;;;5123831;28;19978;-40
2024/01/11 11:18:50;;;;;;;;;;;;;;;;;;5119827;28;20384;-41
2024/01/11 11:21:15;;;;;;;;;;;;;;;;;;5120530;27;20033;-40
2024/01/11 11:23:41;;;;;;;;;;;;;;;;;;5119461;28;19971;-41
2024/01/11 11:26:08;;;;;;;;;;;;;;;;;;5120633;28;19931;-41
2024/01/11 11:28:34;;;;;;;;;;;;;;;;;;5120721;27;20391;-42
2024/01/11 11:31:02;;;;;;;;;;;;;;;;;;5122621;28;21917;-41
2024/01/11 11:33:28;;;;;;;;;;;;;;;;;;5119169;27;19934;-42
2024/01/11 11:35:54;;;;;;;;;;;;;;;;;;5123930;27;19958;-40
2024/01/11 11:38:19;;;;;;;;;;;;;;;;;;5122254;28;20402;-42
2024/01/11 11:40:45;;;;;;;;;;;;;;;;;;5117643;28;19982;-43
2024/01/11 11:43:11;;;;;;;;;;;;;;;;;;5114382;28;20371;-40
2024/01/11 11:45:36;;;;;;;;;;;;;;;;;;5108438;28;19974;-41
2024/01/11 11:48:02;;;;;;;;;;;;;;;;;;5117774;28;20424;-41
2024/01/11 11:50:27;;;;;;;;;;;;;;;;;;5113189;28;19939;-41
2024/01/11 11:52:53;;;;;;;;;;;;;;;;;;5115400;27;20406;-41
2024/01/11 11:55:18;;;;;;;;;;;;;;;;;;5116296;28;20396;-41
2024/01/11 11:57:44;;;;;;;;;;;;;;;;;;5117510;28;20400;-42
2024/01/11 12:00:11;;;;;;;;;;;;;;;;;;5116331;28;20430;-41
2024/01/11 12:02:36;;;;;;;;;;;;;;;;;;5115614;28;19927;-42
2024/01/11 12:05:02;;;;;;;;;;;;;;;;;;5116529;27;19938;-43
2024/01/11 12:07:27;;;;;;;;;;;;;;;;;;5114859;27;20015;-40
2024/01/11 12:09:53;;;;;;;;;;;;;;;;;;5116771;27;19924;-43
2024/01/11 12:12:20;;;;;;;;;;;;;;;;;;5124062;28;19931;-41
2024/01/11 12:14:46;;;;;;;;;;;;;;;;;;5123569;28;19931;-41
2024/01/11 12:17:11;;;;;;;;;;;;;;;;;;5123540;28;20078;-41
2024/01/11 12:19:37;;;;;;;;;;;;;;;;;;5124427;28;19931;-40
2024/01/11 12:22:02;;;;;;;;;;;;;;;;;;5124984;28;20022;-41
2024/01/11 12:24:30;;;;;;;;;;;;;;;;;;5121612;28;19923;-42
2024/01/11 12:26:55;;;;;;;;;;;;;;;;;;5119768;28;19980;-43
2024/01/11 12:29:22;;;;;;;;;;;;;;;;;;5120150;28;19938;-43
2024/01/11 12:31:47;;;;;;;;;;;;;;;;;;5121738;28;19974;-40
2024/01/11 12:34:13;;;;;;;;;;;;;;;;;;5115875;28;20414;-40
2024/01/11 12:36:39;;;;;;;;;;;;;;;;;;5114349;27;19954;-40
2024/01/11 12:39:06;;;;;;;;;;;;;;;;;;5121431;28;19931;-43
2024/01/11 12:41:31;;;;;;;;;;;;;;;;;;5115925;27;19928;-41
2024/01/11 12:43:57;;;;;;;;;;;;;;;;;;5114219;28;20063;-42
2024/01/11 12:46:22;;;;;;;;;;;;;;;;;;5109374;27;19923;-43
2024/01/11 12:48:48;;;;;;;;;;;;;;;;;;5110783;27;19935;-41
2024/01/11 12:51:13;;;;;;;;;;;;;;;;;;5108050;27;19938;-40
2024/01/11 12:53:45;;;;;;;;;;;;;;;;;;5110999;28;19976;-41
2024/01/11 12:56:11;;;;;;;;;;;;;;;;;;5108504;27;19951;-41
2024/01/11 12:58:37;;;;;;;;;;;;;;;;;;5111391;28;20014;-41
2024/01/11 13:01:03;;;;;;;;;;;;;;;;;;5110724;27;19927;-42
2024/01/11 13:03:28;;;;;;;;;;;;;;;;;;5111879;28;20058;-43
2024/01/11 13:05:54;;;;;;;;;;;;;;;;;;5110699;27;19984;-41
2024/01/11 13:08:19;;;;;;;;;;;;;;;;;;5112006;28;19927;-41
2024/01/11 13:10:47;;;;;;;;;;;;;;;;;;5111513;28;19932;-40
2024/01/11 13:13:13;;;;;;;;;;;;;;;;;;5113803;28;19975;-41
2024/01/11 13:15:39;;;;;;;;;;;;;;;;;;5111665;28;20524;-44
2024/01/11 13:18:04;;;;;;;;;;;;;;;;;;5113582;28;19932;-45
2024/01/11 13:20:30;;;;;;;;;;;;;;;;;;5109087;27;20455;-41
2024/01/11 13:22:55;;;;;;;;;;;;;;;;;;5112082;28;19932;-41
2024/01/11 13:25:21;;;;;;;;;;;;;;;;;;5111901;28;19923;-44
2024/01/11 13:27:47;;;;;;;;;;;;;;;;;;5108511;28;20320;-42
2024/01/11 13:30:13;;;;;;;;;;;;;;;;;;5115207;28;19950;-41
2024/01/11 13:32:39;;;;;;;;;;;;;;;;;;5120472;28;20371;-42
2024/01/11 13:35:05;;;;;;;;;;;;;;;;;;5106989;27;19981;-41
2024/01/11 13:37:31;;;;;;;;;;;;;;;;;;5107537;28;19962;-40
2024/01/11 13:39:56;;;;;;;;;;;;;;;;;;5117038;28;19931;-42
2024/01/11 13:42:22;;;;;;;;;;;;;;;;;;5119632;28;20332;-42
2024/01/11 13:44:47;;;;;;;;;;;;;;;;;;5120278;28;20362;-43
2024/01/11 13:47:14;;;;;;;;;;;;;;;;;;5123405;28;20222;-40
2024/01/11 13:49:39;;;;;;;;;;;;;;;;;;5122739;28;20532;-41
2024/01/11 13:52:06;;;;;;;;;;;;;;;;;;5122349;28;20243;-42
2024/01/11 13:54:31;;;;;;;;;;;;;;;;;;5125177;28;19939;-43
2024/01/11 13:56:56;;;;;;;;;;;;;;;;;;5124334;28;20014;-42
2024/01/11 13:59:22;;;;;;;;;;;;;;;;;;5126545;28;19975;-42
2024/01/11 14:01:50;;;;;;;;;;;;;;;;;;5121149;27;21205;-40
2024/01/11 14:04:15;;;;;;;;;;;;;;;;;;5124051;28;19996;-40
2024/01/11 14:06:41;;;;;;;;;;;;;;;;;;5122881;27;19927;-40
2024/01/11 14:09:09;;;;;;;;;;;;;;;;;;5125950;28;19988;-42
2024/01/11 14:11:35;;;;;;;;;;;;;;;;;;5124136;27;19981;-41
2024/01/11 14:14:01;;;;;;;;;;;;;;;;;;5122822;27;19931;-40
2024/01/11 14:16:26;;;;;;;;;;;;;;;;;;5124947;28;19927;-41
2024/01/11 14:18:53;;;;;;;;;;;;;;;;;;5123796;28;19927;-41
2024/01/11 14:21:19;;;;;;;;;;;;;;;;;;5040989;28;20011;-42
2024/01/11 14:23:44;;;;;;;;;;;;;;;;;;5040564;28;20031;-40
2024/01/11 14:26:10;;;;;;;;;;;;;;;;;;5034559;28;20019;-39
2024/01/11 14:28:42;;;;;;;;;;;;;;;;;;5040030;28;19982;-41
2024/01/11 14:31:07;;;;;;;;;;;;;;;;;;5035971;28;20515;-41
2024/01/11 14:33:33;;;;;;;;;;;;;;;;;;5035796;28;20035;-40
2024/01/11 14:35:58;;;;;;;;;;;;;;;;;;5033549;28;20256;-40
2024/01/11 14:38:24;;;;;;;;;;;;;;;;;;5041055;28;19952;-40
2024/01/11 14:40:50;;;;;;;;;;;;;;;;;;5118664;28;20606;-40
2024/01/11 14:43:15;;;;;;;;;;;;;;;;;;5120854;28;20118;-42
2024/01/11 14:45:41;;;;;;;;;;;;;;;;;;5120885;28;20143;-42
2024/01/11 14:48:06;;;;;;;;;;;;;;;;;;5120483;28;19927;-42
2024/01/11 14:50:32;;;;;;;;;;;;;;;;;;5121499;28;20035;-40
2024/01/11 14:52:57;;;;;;;;;;;;;;;;;;5121845;28;20000;-41
2024/01/11 14:55:23;;;;;;;;;;;;;;;;;;5126390;28;19924;-41
2024/01/11 14:57:48;;;;;;;;;;;;;;;;;;5125690;28;20018;-41
2024/01/11 15:00:16;;;;;;;;;;;;;;;;;;5121528;28;19927;-41
2024/01/11 15:02:44;;;;;;;;;;;;;;;;;;5126566;28;20022;-41
2024/01/11 15:05:09;;;;;;;;;;;;;;;;;;5127423;28;19924;-40
2024/01/11 15:07:35;;;;;;;;;;;;;;;;;;5122130;28;20438;-42
2024/01/11 15:10:01;;;;;;;;;;;;;;;;;;5126177;28;20002;-41
2024/01/11 15:12:26;;;;;;;;;;;;;;;;;;5123865;28;21426;-41
2024/01/11 15:14:52;;;;;;;;;;;;;;;;;;5120878;28;20019;-41
2024/01/11 15:17:18;;;;;;;;;;;;;;;;;;5120004;28;20449;-41
2024/01/11 15:19:43;;;;;;;;;;;;;;;;;;5124967;28;20363;-42
2024/01/11 15:22:12;;;;;;;;;;;;;;;;;;5120781;28;20147;-41
2024/01/11 15:24:37;;;;;;;;;;;;;;;;;;5122166;28;19976;-40
2024/01/11 15:27:03;;;;;;;;;;;;;;;;;;5120804;28;19924;-41
2024/01/11 15:29:28;;;;;;;;;;;;;;;;;;5119620;28;19932;-41
2024/01/11 15:31:54;;;;;;;;;;;;;;;;;;5122093;27;20371;-41
2024/01/11 15:34:20;;;;;;;;;;;;;;;;;;5120717;28;20339;-41
2024/01/11 15:36:46;;;;;;;;;;;;;;;;;;5121693;28;20832;-41
2024/01/11 15:39:11;;;;;;;;;;;;;;;;;;5122968;28;20414;-40
2024/01/11 15:41:47;;;;;;;;;;;;;;;;;;5122081;28;20018;-42
2024/01/11 15:44:13;;;;;;;;;;;;;;;;;;5124746;27;19923;-41
2024/01/11 15:46:38;;;;;;;;;;;;;;;;;;5125780;28;20030;-41
2024/01/11 15:49:04;;;;;;;;;;;;;;;;;;5126265;28;20031;-40
2024/01/11 15:51:30;;;;;;;;;;;;;;;;;;5126285;28;19947;-41
2024/01/11 15:53:55;;;;;;;;;;;;;;;;;;5127176;28;19924;-40
2024/01/11 15:56:20;;;;;;;;;;;;;;;;;;5127010;28;19924;-42
2024/01/11 15:58:46;;;;;;;;;;;;;;;;;;5127509;28;19935;-40
2024/01/11 16:01:11;;;;;;;;;;;;;;;;;;5127612;28;19923;-41
2024/01/11 16:03:37;;;;;;;;;;;;;;;;;;5127496;28;19931;-39
2024/01/11 16:06:03;;;;;;;;;;;;;;;;;;5126992;28;19930;-41
2024/01/11 16:08:28;;;;;;;;;;;;;;;;;;5127458;28;20381;-40
2024/01/11 16:10:54;;;;;;;;;;;;;;;;;;5126793;28;19988;-41
2024/01/11 16:13:19;;;;;;;;;;;;;;;;;;5126939;28;20287;-40
2024/01/11 16:15:45;;;;;;;;;;;;;;;;;;5127317;28;19923;-43
2024/01/11 16:18:10;;;;;;;;;;;;;;;;;;5126988;28;19927;-40
2024/01/11 16:20:36;;;;;;;;;;;;;;;;;;5127048;28;19927;-41
2024/01/11 16:23:01;;;;;;;;;;;;;;;;;;5127357;28;19975;-41
2024/01/11 16:25:27;;;;;;;;;;;;;;;;;;5127618;28;20443;-40
2024/01/11 16:27:53;;;;;;;;;;;;;;;;;;5127052;28;20390;-41
2024/01/11 16:30:18;;;;;;;;;;;;;;;;;;5126723;28;19988;-40
2024/01/11 16:32:44;;;;;;;;;;;;;;;;;;5127252;28;19927;-42
2024/01/11 16:35:09;;;;;;;;;;;;;;;;;;5127575;28;20010;-40